createdAt,value
2022-09-13T08:23:25.275Z,74.81
2022-09-13T08:28:27.655Z,71.16
2022-09-13T08:35:12.045Z,73.74
2022-09-13T08:40:12.200Z,71.50
2022-09-13T08:45:11.944Z,69.79
2022-09-13T08:50:11.820Z,67.79
2022-09-13T08:55:11.888Z,67.66
2022-09-13T09:01:29.290Z,68.26
2022-09-13T09:06:29.031Z,65.73
2022-09-13T09:11:29.159Z,65.83
2022-09-13T09:16:29.008Z,65.83
2022-09-13T09:21:36.808Z,62.72
2022-09-13T09:26:28.773Z,61.96
2022-09-13T09:31:28.977Z,62.13
2022-09-13T09:36:28.646Z,61.69
2022-09-13T09:41:28.834Z,60.47
2022-09-13T09:46:28.515Z,60.60
2022-09-13T09:51:31.460Z,59.68
2022-09-13T09:56:28.300Z,60.77
2022-09-13T10:01:28.330Z,61.31
2022-09-13T10:06:28.274Z,61.38
2022-09-13T10:11:28.249Z,61.38
2022-09-13T10:16:28.082Z,59.66
2022-09-13T10:21:28.241Z,60.58
2022-09-13T10:26:27.906Z,59.79
2022-09-13T10:31:27.873Z,58.70
2022-09-13T10:36:50.680Z,59.34
2022-09-13T10:41:28.730Z,60.39
2022-09-13T10:46:27.636Z,61.05
2022-09-13T10:51:30.593Z,59.72
2022-09-13T10:56:27.525Z,62.13
2022-09-13T11:01:27.553Z,59.17
2022-09-13T11:06:27.376Z,57.29
2022-09-13T11:11:27.335Z,55.06
2022-09-13T11:16:27.310Z,53.72
2022-09-13T11:21:27.223Z,55.53
2022-09-13T11:26:27.174Z,55.11
2022-09-13T11:31:27.198Z,52.93
2022-09-13T11:36:27.068Z,54.19
2022-09-13T11:41:26.986Z,51.59
2022-09-13T11:46:26.886Z,52.19
2022-09-13T11:51:36.684Z,51.82
2022-09-13T11:56:26.739Z,53.78
2022-09-13T12:01:26.734Z,54.10
2022-09-13T12:06:26.608Z,54.30
2022-09-13T12:11:26.624Z,54.55
2022-09-13T12:16:26.493Z,54.08
2022-09-13T12:21:26.434Z,51.92
2022-09-13T12:27:54.091Z,53.08
2022-09-13T12:32:58.628Z,52.41
2022-09-13T12:37:55.210Z,50.83
2022-09-13T12:42:53.890Z,51.10
2022-09-13T12:47:53.859Z,49.12
2022-09-13T12:52:53.799Z,50.56
2022-09-13T12:57:53.818Z,50.60
2022-09-13T13:02:54.916Z,51.77
2022-09-13T13:07:53.609Z,48.30
2022-09-13T13:12:53.471Z,49.27
2022-09-13T13:17:56.488Z,49.60
2022-09-13T13:22:53.338Z,49.54
2022-09-13T13:28:01.098Z,46.98
2022-09-13T13:33:02.761Z,46.19
2022-09-13T13:37:53.170Z,43.25
2022-09-13T13:42:53.059Z,44.65
2022-09-13T13:47:53.149Z,43.19
2022-09-13T13:53:00.906Z,43.66
2022-09-13T13:57:52.943Z,45.85
2022-09-13T14:02:53.231Z,44.96
2022-09-13T14:07:52.755Z,43.71
2022-09-13T14:12:53.148Z,44.82
2022-09-13T14:17:55.789Z,42.83
2022-09-13T14:22:52.799Z,42.93
2022-09-13T14:27:52.943Z,43.32
2022-09-13T14:32:52.428Z,41.69
2022-09-13T14:37:52.384Z,43.03
2022-09-13T14:42:52.314Z,42.22
2022-09-13T14:47:52.284Z,43.15
2022-09-13T14:52:52.169Z,43.19
2022-09-13T14:57:52.313Z,44.33
2022-09-13T15:02:52.036Z,42.25
2022-09-13T15:07:52.159Z,40.98
2022-09-13T15:12:51.911Z,44.70
2022-09-13T15:17:54.881Z,43.46
2022-09-13T15:22:51.806Z,43.92
2022-09-13T15:27:51.818Z,45.89
2022-09-13T15:32:51.974Z,45.03
2022-09-13T15:37:51.688Z,46.01
2022-09-13T15:42:51.791Z,45.05
2022-09-13T15:47:51.494Z,45.07
2022-09-13T15:52:51.385Z,47.27
2022-09-13T15:57:51.460Z,49.74
2022-09-13T16:02:51.261Z,49.32
2022-09-13T16:07:51.324Z,49.81
2022-09-13T16:12:51.153Z,51.52
2022-09-13T16:17:54.129Z,51.82
2022-09-13T16:22:51.038Z,53.85
2022-09-13T16:27:50.964Z,54.08
2022-09-13T16:32:50.843Z,55.04
2022-09-13T16:37:50.879Z,54.94
2022-09-13T16:42:50.814Z,54.68
2022-09-13T16:47:50.749Z,56.71
2022-09-13T16:52:50.604Z,57.38
2022-09-13T16:57:50.604Z,58.92
2022-09-13T17:02:50.776Z,60.84
2022-09-13T17:07:50.521Z,62.07
2022-09-13T17:12:50.365Z,64.39
2022-09-13T17:17:53.414Z,66.07
2022-09-13T17:22:50.228Z,69.39
2022-09-13T17:27:50.364Z,68.70
2022-09-13T17:32:50.068Z,68.70
2022-09-13T17:37:50.221Z,67.86
2022-09-13T17:44:00.644Z,66.13
2022-09-13T17:49:00.479Z,67.63
2022-09-13T17:54:00.488Z,68.03
2022-09-13T17:59:00.336Z,65.93
2022-09-13T18:04:00.330Z,65.83
2022-09-13T18:09:00.236Z,67.23
2022-09-13T18:14:00.248Z,68.19
2022-09-13T18:19:00.106Z,69.39
2022-09-13T18:24:00.202Z,69.32
2022-09-13T18:28:59.963Z,69.32
2022-09-13T18:34:02.941Z,69.43
2022-09-13T18:38:59.861Z,68.76
2022-09-13T18:43:59.971Z,67.89
2022-09-13T18:48:59.714Z,66.99
2022-09-13T18:53:59.714Z,68.52
2022-09-13T18:58:59.613Z,70.09
2022-09-13T19:03:59.602Z,70.50
2022-09-13T19:08:59.439Z,70.89
2022-09-13T19:13:59.479Z,69.39
2022-09-13T19:18:59.341Z,69.19
2022-09-13T19:24:01.507Z,69.59
2022-09-13T19:28:59.178Z,71.73
2022-09-13T19:34:02.213Z,72.27
2022-09-13T19:38:59.103Z,73.40
2022-09-13T19:44:00.999Z,70.93
2022-09-13T19:49:00.133Z,72.20
2022-09-13T19:54:03.245Z,71.90
2022-09-13T19:58:58.829Z,73.54
2022-09-13T20:03:59.081Z,74.98
2022-09-13T20:08:58.663Z,76.05
2022-09-13T20:14:00.070Z,76.65
2022-09-13T20:18:58.556Z,75.88
2022-09-13T20:23:59.784Z,74.04
2022-09-13T20:28:58.393Z,74.37
2022-09-13T20:34:01.365Z,76.56
2022-09-13T20:39:02.982Z,79.68
2022-09-13T20:43:59.959Z,78.34
2022-09-13T20:48:58.295Z,78.54
2022-09-13T20:53:58.110Z,77.70
2022-09-13T20:58:58.552Z,78.30
2022-09-13T21:03:58.019Z,78.50
2022-09-13T21:08:58.081Z,79.04
2022-09-13T21:14:02.590Z,78.74
2022-09-13T21:18:58.477Z,79.14
2022-09-13T21:23:59.414Z,77.76
2022-09-13T21:28:57.843Z,77.36
2022-09-13T21:34:01.712Z,78.64
2022-09-13T21:38:57.475Z,81.53
2022-09-13T21:43:57.509Z,79.44
2022-09-13T21:48:57.369Z,78.30
2022-09-13T21:54:04.583Z,77.56
2022-09-13T21:59:04.848Z,78.94
2022-09-13T22:03:57.608Z,80.19
2022-09-13T22:09:18.116Z,80.97
2022-09-13T22:13:57.026Z,82.18
2022-09-13T22:18:56.997Z,82.07
2022-09-13T22:23:57.093Z,81.57
2022-09-13T22:28:56.855Z,82.42
2022-09-13T22:33:59.863Z,83.16
2022-09-13T22:38:56.680Z,83.12
2022-09-13T22:43:57.353Z,82.62
2022-09-13T22:48:56.787Z,82.21
2022-09-13T22:53:56.535Z,83.87
2022-09-13T22:58:56.484Z,83.97
2022-09-13T23:03:56.741Z,83.12
2022-09-13T23:08:56.290Z,83.22
2022-09-13T23:13:56.306Z,81.93
2022-09-13T23:18:56.189Z,82.04
2022-09-13T23:23:56.167Z,82.24
2022-09-13T23:28:56.022Z,79.50
2022-09-13T23:33:59.056Z,79.64
2022-09-13T23:38:55.895Z,80.58
2022-09-13T23:43:56.109Z,80.65
2022-09-13T23:48:55.795Z,80.11
2022-09-13T23:53:56.462Z,81.05
2022-09-13T23:58:55.635Z,80.85
